createdAt,value
2023-05-02T00:00:25.098Z,9.38
2023-05-02T00:00:57.691Z,9.38
2023-05-02T00:01:31.517Z,9.38
2023-05-02T00:02:04.225Z,9.38
2023-05-02T00:02:37.003Z,9.31
2023-05-02T00:03:10.701Z,9.31
2023-05-02T00:03:44.051Z,9.38
2023-05-02T00:04:16.709Z,9.31
2023-05-02T00:04:50.317Z,9.31
2023-05-02T00:05:23.075Z,9.31
2023-05-02T00:05:58.574Z,9.31
2023-05-02T00:06:32.514Z,9.31
2023-05-02T00:07:05.580Z,9.25
2023-05-02T00:07:38.458Z,9.25
2023-05-02T00:08:12.277Z,9.25
2023-05-02T00:08:44.801Z,9.25
2023-05-02T00:09:18.420Z,9.25
2023-05-02T00:09:51.087Z,9.25
2023-05-02T00:10:25.924Z,9.25
2023-05-02T00:10:58.386Z,9.19
2023-05-02T00:11:30.998Z,9.19
2023-05-02T00:12:04.551Z,9.19
2023-05-02T00:12:36.999Z,9.19
2023-05-02T00:13:09.462Z,9.19
2023-05-02T00:13:44.149Z,9.19
2023-05-02T00:14:16.687Z,9.19
2023-05-02T00:14:49.472Z,9.19
2023-05-02T00:15:22.966Z,9.19
2023-05-02T00:15:55.491Z,9.19
2023-05-02T00:16:28.055Z,9.19
2023-05-02T00:17:01.576Z,9.19
2023-05-02T00:17:34.269Z,9.13
2023-05-02T00:18:06.815Z,9.13
2023-05-02T00:18:40.341Z,9.13
2023-05-02T00:19:12.761Z,9.13
2023-05-02T00:19:45.376Z,9.13
2023-05-02T00:20:18.907Z,9.13
2023-05-02T00:20:51.744Z,9.13
2023-05-02T00:21:24.408Z,9.13
2023-05-02T00:21:57.889Z,9.13
2023-05-02T00:22:30.568Z,9.13
2023-05-02T00:23:03.026Z,9.13
2023-05-02T00:23:36.632Z,9.13
2023-05-02T00:24:09.129Z,9.13
2023-05-02T00:24:41.692Z,9.13
2023-05-02T00:25:16.308Z,9.13
2023-05-02T00:25:51.247Z,9.13
2023-05-02T00:26:23.805Z,9.13
2023-05-02T00:26:56.285Z,9.06
2023-05-02T00:27:30.630Z,9.06
2023-05-02T00:28:03.121Z,9.06
2023-05-02T00:28:35.741Z,9.06
2023-05-02T00:29:09.250Z,9.06
2023-05-02T00:29:42.104Z,9.06
2023-05-02T00:30:15.125Z,9.06
2023-05-02T00:30:48.035Z,9.06
2023-05-02T00:31:21.588Z,9.06
2023-05-02T00:31:54.062Z,9.06
2023-05-02T00:32:26.956Z,9.06
2023-05-02T00:33:00.471Z,9.06
2023-05-02T00:33:33.056Z,9.06
2023-05-02T00:34:06.302Z,9.06
2023-05-02T00:34:39.936Z,9.06
2023-05-02T00:35:12.765Z,9.06
2023-05-02T00:35:45.963Z,9.06
2023-05-02T00:36:21.035Z,9.06
2023-05-02T00:36:53.606Z,9.06
2023-05-02T00:37:27.979Z,9.06
2023-05-02T00:38:01.619Z,9.06
2023-05-02T00:38:34.187Z,9.06
2023-05-02T00:39:06.717Z,9.06
2023-05-02T00:39:40.210Z,9.00
2023-05-02T00:40:13.708Z,9.00
2023-05-02T00:40:48.570Z,9.00
2023-05-02T00:41:22.429Z,9.00
2023-05-02T00:41:57.942Z,9.00
2023-05-02T00:42:32.920Z,9.00
2023-05-02T00:43:05.469Z,9.00
2023-05-02T00:43:39.571Z,9.00
2023-05-02T00:44:13.588Z,9.00
2023-05-02T00:44:46.953Z,9.00
2023-05-02T00:45:19.702Z,9.00
2023-05-02T00:45:53.253Z,9.00
2023-05-02T00:46:26.023Z,9.00
2023-05-02T00:46:59.926Z,9.00
2023-05-02T00:47:33.859Z,9.00
2023-05-02T00:48:07.058Z,9.00
2023-05-02T00:48:39.961Z,9.00
2023-05-02T00:49:13.634Z,9.00
2023-05-02T00:49:46.125Z,9.00
2023-05-02T00:50:19.116Z,9.00
2023-05-02T00:50:53.161Z,9.00
2023-05-02T00:51:27.331Z,9.00
2023-05-02T00:51:59.804Z,9.00
2023-05-02T00:52:34.062Z,9.00
2023-05-02T00:53:06.799Z,9.00
2023-05-02T00:53:39.343Z,9.00
2023-05-02T00:54:13.713Z,9.00
2023-05-02T00:54:47.328Z,9.00
2023-05-02T00:55:20.175Z,9.00
2023-05-02T00:55:54.293Z,9.00
2023-05-02T00:56:28.330Z,9.00
2023-05-02T00:57:00.849Z,9.00
2023-05-02T00:57:35.105Z,9.00
2023-05-02T00:58:11.720Z,9.00
2023-05-02T00:58:45.660Z,9.06
2023-05-02T00:59:19.513Z,9.00
2023-05-02T00:59:52.115Z,9.00
2023-05-02T01:00:31.424Z,9.06
2023-05-02T01:01:13.346Z,9.00
2023-05-02T01:01:57.081Z,9.00
2023-05-02T01:02:42.824Z,9.06
2023-05-02T01:03:36.887Z,9.00
2023-05-02T01:04:20.885Z,9.06
2023-05-02T01:05:03.524Z,9.06
2023-05-02T01:05:44.804Z,9.06
2023-05-02T01:06:31.299Z,9.06
2023-05-02T01:07:17.982Z,9.06
2023-05-02T01:08:06.519Z,9.06
2023-05-02T01:08:47.314Z,9.06
2023-05-02T01:09:34.614Z,9.06
2023-05-02T01:10:22.430Z,9.06
2023-05-02T01:11:02.958Z,9.06
2023-05-02T01:11:45.624Z,9.00
2023-05-02T01:12:26.605Z,9.00
2023-05-02T01:13:03.987Z,9.00
2023-05-02T01:13:38.981Z,9.00
2023-05-02T01:14:13.907Z,9.00
2023-05-02T01:14:50.894Z,9.00
2023-05-02T01:15:25.324Z,9.00
2023-05-02T01:15:59.847Z,9.00
2023-05-02T01:16:34.097Z,9.00
2023-05-02T01:17:11.164Z,9.00
2023-05-02T01:17:45.778Z,9.00
2023-05-02T01:18:22.075Z,9.00
2023-05-02T01:18:56.056Z,9.00
2023-05-02T01:19:34.240Z,8.94
2023-05-02T01:20:12.891Z,8.94
2023-05-02T01:20:48.162Z,8.94
2023-05-02T01:21:21.248Z,8.94
2023-05-02T01:21:57.537Z,8.94
2023-05-02T01:22:30.569Z,8.94
2023-05-02T01:23:09.314Z,8.94
2023-05-02T01:23:54.417Z,8.94
2023-05-02T01:24:32.650Z,8.94
2023-05-02T01:25:14.482Z,8.94
2023-05-02T01:26:02.360Z,8.94
2023-05-02T01:26:44.081Z,8.94
2023-05-02T01:27:22.664Z,8.88
2023-05-02T01:28:06.079Z,8.88
2023-05-02T01:28:59.191Z,8.88
2023-05-02T01:29:33.488Z,8.88
2023-05-02T01:30:08.936Z,8.88
2023-05-02T01:30:44.135Z,8.88
2023-05-02T01:31:17.758Z,8.88
2023-05-02T01:31:51.503Z,8.88
2023-05-02T01:32:25.001Z,8.88
2023-05-02T01:33:00.442Z,8.88
2023-05-02T01:33:35.362Z,8.88
2023-05-02T01:34:10.286Z,8.88
2023-05-02T01:34:46.477Z,8.81
2023-05-02T01:35:20.283Z,8.81
2023-05-02T01:35:53.853Z,8.81
2023-05-02T01:36:30.318Z,8.81
2023-05-02T01:37:04.587Z,8.81
2023-05-02T01:37:39.305Z,8.81
2023-05-02T01:38:17.154Z,8.81
2023-05-02T01:38:51.389Z,8.81
2023-05-02T01:39:26.986Z,8.81
2023-05-02T01:40:02.196Z,8.81
2023-05-02T01:40:36.772Z,8.81
2023-05-02T01:41:11.720Z,8.81
2023-05-02T01:41:45.089Z,8.81
2023-05-02T01:42:20.140Z,8.81
2023-05-02T01:42:55.143Z,8.81
2023-05-02T01:43:28.010Z,8.75
2023-05-02T01:44:03.861Z,8.75
2023-05-02T01:44:38.442Z,8.75
2023-05-02T01:45:12.863Z,8.75
2023-05-02T01:45:48.510Z,8.75
2023-05-02T01:46:21.927Z,8.75
2023-05-02T01:46:55.315Z,8.75
2023-05-02T01:47:30.958Z,8.75
2023-05-02T01:48:06.101Z,8.75
2023-05-02T01:48:39.208Z,8.75
2023-05-02T01:49:12.930Z,8.75
2023-05-02T01:49:46.587Z,8.75
2023-05-02T01:50:24.146Z,8.69
2023-05-02T01:50:59.646Z,8.69
2023-05-02T01:51:35.547Z,8.69
2023-05-02T01:52:11.566Z,8.69
2023-05-02T01:52:46.095Z,8.69
2023-05-02T01:53:18.855Z,8.69
2023-05-02T01:53:52.213Z,8.63
2023-05-02T01:54:26.821Z,8.69
2023-05-02T01:55:00.964Z,8.63
2023-05-02T01:55:36.099Z,8.69
2023-05-02T01:56:09.694Z,8.63
2023-05-02T01:56:43.576Z,8.63
2023-05-02T01:57:17.977Z,8.63
2023-05-02T01:57:54.407Z,8.63
2023-05-02T01:58:29.522Z,8.63
2023-05-02T01:59:06.222Z,8.63
2023-05-02T01:59:42.387Z,8.63
2023-05-02T02:00:19.513Z,8.63
2023-05-02T02:00:53.210Z,8.63
2023-05-02T02:01:27.714Z,8.63
2023-05-02T02:02:01.949Z,8.63
2023-05-02T02:02:37.074Z,8.63
2023-05-02T02:03:10.499Z,8.63
2023-05-02T02:03:44.460Z,8.56
2023-05-02T02:04:19.327Z,8.56
2023-05-02T02:04:54.230Z,8.56
2023-05-02T02:05:27.120Z,8.56
2023-05-02T02:06:02.293Z,8.56
2023-05-02T02:06:35.114Z,8.56
2023-05-02T02:07:11.892Z,8.56
2023-05-02T02:07:44.674Z,8.56
2023-05-02T02:08:17.450Z,8.56
2023-05-02T02:08:51.608Z,8.56
2023-05-02T02:09:24.297Z,8.56
2023-05-02T02:09:57.011Z,8.56
2023-05-02T02:10:33.968Z,8.56
2023-05-02T02:11:11.915Z,8.56
2023-05-02T02:11:48.359Z,8.56
2023-05-02T02:12:26.259Z,8.56
2023-05-02T02:13:06.122Z,8.56
2023-05-02T02:13:46.254Z,8.56
2023-05-02T02:14:25.745Z,8.56
2023-05-02T02:15:12.463Z,8.56
2023-05-02T02:15:50.261Z,8.50
2023-05-02T02:16:28.946Z,8.50
2023-05-02T02:17:05.251Z,8.50
2023-05-02T02:17:46.465Z,8.50
2023-05-02T02:18:21.777Z,8.50
2023-05-02T02:18:57.491Z,8.50
2023-05-02T02:19:31.470Z,8.50
2023-05-02T02:20:07.495Z,8.50
2023-05-02T02:20:44.771Z,8.50
2023-05-02T02:21:21.479Z,8.44
2023-05-02T02:21:55.888Z,8.44
2023-05-02T02:22:30.516Z,8.44
2023-05-02T02:23:07.374Z,8.44
2023-05-02T02:23:43.477Z,8.44
2023-05-02T02:24:19.865Z,8.44
2023-05-02T02:24:54.574Z,8.44
2023-05-02T02:25:27.574Z,8.44
2023-05-02T02:26:02.819Z,8.44
2023-05-02T02:26:36.519Z,8.44
2023-05-02T02:27:09.159Z,8.44
2023-05-02T02:27:43.402Z,8.44
2023-05-02T02:28:15.959Z,8.44
2023-05-02T02:28:49.043Z,8.44
2023-05-02T02:29:24.006Z,8.44
2023-05-02T02:29:56.449Z,8.44
2023-05-02T02:30:29.091Z,8.44
2023-05-02T02:31:02.981Z,8.44
2023-05-02T02:31:36.451Z,8.44
2023-05-02T02:32:10.002Z,8.44
2023-05-02T02:32:42.532Z,8.44
2023-05-02T02:33:15.046Z,8.44
2023-05-02T02:33:48.804Z,8.44
2023-05-02T02:34:22.093Z,8.44
2023-05-02T02:34:55.447Z,8.44
2023-05-02T02:35:35.479Z,8.44
2023-05-02T02:36:12.992Z,8.44
2023-05-02T02:36:48.681Z,8.44
2023-05-02T02:37:27.190Z,8.44
2023-05-02T02:38:09.702Z,8.44
2023-05-02T02:38:49.225Z,8.44
2023-05-02T02:39:39.448Z,8.44
2023-05-02T02:40:19.985Z,8.44
2023-05-02T02:40:57.517Z,8.44
2023-05-02T02:41:36.838Z,8.44
2023-05-02T02:42:15.497Z,8.44
2023-05-02T02:42:59.223Z,8.44
2023-05-02T02:43:37.906Z,8.44
2023-05-02T02:44:21.481Z,8.44
2023-05-02T02:45:01.940Z,8.44
2023-05-02T02:45:44.180Z,8.44
2023-05-02T02:46:28.140Z,8.44
2023-05-02T02:47:08.757Z,8.44
2023-05-02T02:48:01.190Z,8.38
2023-05-02T02:48:54.879Z,8.38
2023-05-02T02:49:49.909Z,8.38
2023-05-02T02:50:32.592Z,8.38
2023-05-02T02:51:16.170Z,8.38
2023-05-02T02:52:13.178Z,8.38
2023-05-02T02:53:18.995Z,8.38
2023-05-02T02:54:18.956Z,8.38
2023-05-02T02:55:01.993Z,8.31
2023-05-02T02:55:42.472Z,8.31
2023-05-02T02:56:19.972Z,8.25
2023-05-02T02:57:02.222Z,8.25
2023-05-02T02:57:43.804Z,8.19
2023-05-02T02:58:32.700Z,8.19
2023-05-02T02:59:07.743Z,8.19
2023-05-02T02:59:46.610Z,8.19
2023-05-02T03:00:25.585Z,8.19
2023-05-02T03:01:00.302Z,8.13
2023-05-02T03:01:34.470Z,8.13
2023-05-02T03:02:10.963Z,8.13
2023-05-02T03:02:46.666Z,8.13
2023-05-02T03:03:22.936Z,8.13
2023-05-02T03:03:59.591Z,8.13
2023-05-02T03:04:34.064Z,8.13
2023-05-02T03:05:09.254Z,8.13
2023-05-02T03:05:43.756Z,8.13
2023-05-02T03:06:17.388Z,8.13
2023-05-02T03:06:50.679Z,8.13
2023-05-02T03:07:24.635Z,8.13
2023-05-02T03:08:00.144Z,8.19
2023-05-02T03:08:40.360Z,8.19
2023-05-02T03:09:19.511Z,8.13
2023-05-02T03:09:54.291Z,8.19
2023-05-02T03:10:28.950Z,8.13
2023-05-02T03:11:02.381Z,8.19
2023-05-02T03:11:35.032Z,8.13
2023-05-02T03:12:07.554Z,8.13
2023-05-02T03:12:41.908Z,8.13
2023-05-02T03:13:14.492Z,8.13
2023-05-02T03:13:47.701Z,8.13
2023-05-02T03:14:24.463Z,8.13
2023-05-02T03:15:07.242Z,8.13
2023-05-02T03:16:20.297Z,8.13
2023-05-02T03:16:54.184Z,8.13
2023-05-02T03:17:26.756Z,8.19
2023-05-02T03:17:59.464Z,8.13
2023-05-02T03:18:33.571Z,8.13
2023-05-02T03:19:06.925Z,8.19
2023-05-02T03:19:41.038Z,8.19
2023-05-02T03:20:13.591Z,8.19
2023-05-02T03:20:46.856Z,8.19
2023-05-02T03:21:20.636Z,8.19
2023-05-02T03:21:54.607Z,8.19
2023-05-02T03:22:33.877Z,8.19
2023-05-02T03:23:06.787Z,8.19
2023-05-02T03:23:39.729Z,8.13
2023-05-02T03:24:13.712Z,8.13
2023-05-02T03:24:58.650Z,8.13
2023-05-02T03:25:35.731Z,8.13
2023-05-02T03:26:30.057Z,8.13
2023-05-02T03:27:03.456Z,8.13
2023-05-02T03:27:41.939Z,8.13
2023-05-02T03:28:26.773Z,8.13
2023-05-02T03:28:59.640Z,8.13
2023-05-02T03:29:39.577Z,8.13
2023-05-02T03:30:13.158Z,8.13
2023-05-02T03:30:47.078Z,8.13
2023-05-02T03:31:20.068Z,8.13
2023-05-02T03:31:53.813Z,8.06
2023-05-02T03:32:27.504Z,8.06
2023-05-02T03:33:02.680Z,8.06
2023-05-02T03:33:36.403Z,8.06
2023-05-02T03:34:08.931Z,8.06
2023-05-02T03:34:44.346Z,8.06
2023-05-02T03:35:20.803Z,8.06
2023-05-02T03:35:55.083Z,8.06
2023-05-02T03:36:28.743Z,8.06
2023-05-02T03:37:01.539Z,8.06
2023-05-02T03:37:35.341Z,8.06
2023-05-02T03:38:09.109Z,8.06
2023-05-02T03:38:42.207Z,8.06
2023-05-02T03:39:17.562Z,8.06
2023-05-02T03:39:52.154Z,8.06
2023-05-02T03:40:25.002Z,8.06
2023-05-02T03:40:58.183Z,8.06
2023-05-02T03:41:32.362Z,8.06
2023-05-02T03:42:10.514Z,8.06
2023-05-02T03:42:43.033Z,8.06
2023-05-02T03:43:28.536Z,8.06
2023-05-02T03:44:01.900Z,8.06
2023-05-02T03:44:35.880Z,8.06
2023-05-02T03:45:09.478Z,8.06
2023-05-02T03:45:41.978Z,8.06
2023-05-02T03:46:17.001Z,8.06
2023-05-02T03:46:51.021Z,8.00
2023-05-02T03:47:24.587Z,8.00
2023-05-02T03:47:57.217Z,8.00
2023-05-02T03:48:30.049Z,8.00
2023-05-02T03:49:04.568Z,8.00
2023-05-02T03:49:37.089Z,8.00
2023-05-02T03:50:10.800Z,8.00
2023-05-02T03:50:44.778Z,8.00
2023-05-02T03:51:17.302Z,8.00
2023-05-02T03:51:57.667Z,8.00
2023-05-02T03:52:35.528Z,8.00
2023-05-02T03:53:10.090Z,8.00
2023-05-02T03:53:52.680Z,8.00
2023-05-02T03:54:25.216Z,8.00
2023-05-02T03:55:00.503Z,8.00
2023-05-02T03:55:39.856Z,8.00
2023-05-02T03:56:12.823Z,8.00
2023-05-02T03:56:54.523Z,8.00
2023-05-02T03:57:34.048Z,8.00
2023-05-02T03:58:07.007Z,8.00
2023-05-02T03:58:40.199Z,8.00
2023-05-02T03:59:14.288Z,8.00
2023-05-02T03:59:47.611Z,8.00
2023-05-02T04:00:29.325Z,8.00
2023-05-02T04:01:17.082Z,8.00
2023-05-02T04:01:53.102Z,7.94
2023-05-02T04:02:31.727Z,7.94
2023-05-02T04:03:05.722Z,8.00
2023-05-02T04:03:39.378Z,7.94
2023-05-02T04:04:13.150Z,8.00
2023-05-02T04:04:53.077Z,7.94
2023-05-02T04:05:28.011Z,8.00
2023-05-02T04:06:00.543Z,7.94
2023-05-02T04:06:34.640Z,7.94
2023-05-02T04:07:15.661Z,7.94
2023-05-02T04:07:49.542Z,7.94
2023-05-02T04:08:22.182Z,7.94
2023-05-02T04:08:54.829Z,7.94
2023-05-02T04:09:28.671Z,7.94
2023-05-02T04:10:18.003Z,7.94
2023-05-02T04:10:58.088Z,7.94
2023-05-02T04:11:30.759Z,7.94
2023-05-02T04:12:03.765Z,7.94
2023-05-02T04:12:39.013Z,7.94
2023-05-02T04:13:12.240Z,7.94
2023-05-02T04:13:50.004Z,7.94
2023-05-02T04:14:23.964Z,7.94
2023-05-02T04:14:58.736Z,7.94
2023-05-02T04:15:36.249Z,7.94
2023-05-02T04:16:09.908Z,7.94
2023-05-02T04:16:48.963Z,7.94
2023-05-02T04:17:24.655Z,7.94
2023-05-02T04:17:58.862Z,7.94
2023-05-02T04:18:31.570Z,7.94
2023-05-02T04:19:06.430Z,7.94
2023-05-02T04:19:39.326Z,7.94
2023-05-02T04:20:12.596Z,7.94
2023-05-02T04:20:50.190Z,7.94
2023-05-02T04:21:24.812Z,7.94
2023-05-02T04:21:57.534Z,7.94
2023-05-02T04:22:30.945Z,7.94
2023-05-02T04:23:09.517Z,7.94
2023-05-02T04:23:42.650Z,7.88
2023-05-02T04:24:16.143Z,7.94
2023-05-02T04:24:48.620Z,7.88
2023-05-02T04:25:21.539Z,7.88
2023-05-02T04:25:56.879Z,7.88
2023-05-02T04:26:39.636Z,7.88
2023-05-02T04:27:15.602Z,7.88
2023-05-02T04:27:49.685Z,7.88
2023-05-02T04:28:25.470Z,7.88
2023-05-02T04:28:58.924Z,7.88
2023-05-02T04:29:32.411Z,7.88
2023-05-02T04:30:06.456Z,7.88
2023-05-02T04:30:40.087Z,7.88
2023-05-02T04:31:16.170Z,7.88
2023-05-02T04:31:52.236Z,7.88
2023-05-02T04:32:26.341Z,7.81
2023-05-02T04:32:59.573Z,7.81
2023-05-02T04:33:39.227Z,7.81
2023-05-02T04:34:11.935Z,7.81
2023-05-02T04:34:50.595Z,7.81
2023-05-02T04:35:24.849Z,7.81
2023-05-02T04:35:57.379Z,7.81
2023-05-02T04:36:30.292Z,7.81
2023-05-02T04:37:05.725Z,7.81
2023-05-02T04:37:39.326Z,7.81
2023-05-02T04:38:11.904Z,7.81
2023-05-02T04:38:45.381Z,7.81
2023-05-02T04:39:18.881Z,7.81
2023-05-02T04:40:01.233Z,7.75
2023-05-02T04:40:38.413Z,7.75
2023-05-02T04:41:13.676Z,7.75
2023-05-02T04:41:51.269Z,7.75
2023-05-02T04:42:24.999Z,7.75
2023-05-02T04:43:15.508Z,7.75
2023-05-02T04:43:59.589Z,7.81
2023-05-02T04:44:32.113Z,7.75
2023-05-02T04:45:05.879Z,7.75
2023-05-02T04:45:39.379Z,7.75
2023-05-02T04:46:18.108Z,7.75
2023-05-02T04:46:51.943Z,7.75
2023-05-02T04:47:25.781Z,7.75
2023-05-02T04:47:58.372Z,7.75
2023-05-02T04:48:32.245Z,7.75
2023-05-02T04:49:04.774Z,7.75
2023-05-02T04:49:37.248Z,7.75
2023-05-02T04:50:11.900Z,7.75
2023-05-02T04:50:46.188Z,7.75
2023-05-02T04:51:19.658Z,7.75
2023-05-02T04:51:54.614Z,7.75
2023-05-02T04:52:28.465Z,7.75
2023-05-02T04:53:01.951Z,7.75
2023-05-02T04:53:34.793Z,7.75
2023-05-02T04:54:07.392Z,7.75
2023-05-02T04:54:40.956Z,7.75
2023-05-02T04:55:13.514Z,7.75
2023-05-02T04:55:46.663Z,7.75
2023-05-02T04:56:20.182Z,7.75
2023-05-02T04:56:52.876Z,7.75
2023-05-02T04:57:27.458Z,7.75
2023-05-02T04:58:04.478Z,7.75
2023-05-02T04:58:37.629Z,7.75
2023-05-02T04:59:14.184Z,7.75
2023-05-02T04:59:46.786Z,7.75
2023-05-02T05:00:19.591Z,7.75
2023-05-02T05:00:53.279Z,7.75
2023-05-02T05:01:27.919Z,7.75
2023-05-02T05:02:03.041Z,7.75
2023-05-02T05:02:36.666Z,7.75
2023-05-02T05:03:09.347Z,7.75
2023-05-02T05:03:42.152Z,7.69
2023-05-02T05:04:16.815Z,7.69
2023-05-02T05:04:49.637Z,7.69
2023-05-02T05:05:24.979Z,7.69
2023-05-02T05:05:57.580Z,7.69
2023-05-02T05:06:32.822Z,7.69
2023-05-02T05:07:05.809Z,7.63
2023-05-02T05:07:39.449Z,7.63
2023-05-02T05:08:12.097Z,7.63
2023-05-02T05:08:45.704Z,7.63
2023-05-02T05:09:20.056Z,7.63
2023-05-02T05:09:53.448Z,7.63
2023-05-02T05:10:27.794Z,7.63
2023-05-02T05:11:01.942Z,7.63
2023-05-02T05:11:35.491Z,7.63
2023-05-02T05:12:09.453Z,7.63
2023-05-02T05:12:42.664Z,7.63
2023-05-02T05:13:16.343Z,7.63
2023-05-02T05:13:51.617Z,7.56
2023-05-02T05:14:24.523Z,7.63
2023-05-02T05:14:59.918Z,7.56
2023-05-02T05:15:35.525Z,7.56
2023-05-02T05:16:09.080Z,7.56
2023-05-02T05:16:41.793Z,7.56
2023-05-02T05:17:17.173Z,7.63
2023-05-02T05:17:50.067Z,7.63
2023-05-02T05:18:24.032Z,7.63
2023-05-02T05:18:56.490Z,7.63
2023-05-02T05:19:29.300Z,7.63
2023-05-02T05:20:03.927Z,7.63
2023-05-02T05:20:36.983Z,7.63
2023-05-02T05:21:11.004Z,7.63
2023-05-02T05:21:45.244Z,7.63
2023-05-02T05:22:20.018Z,7.63
2023-05-02T05:22:53.950Z,7.63
2023-05-02T05:23:28.447Z,7.63
2023-05-02T05:24:00.953Z,7.63
2023-05-02T05:24:35.873Z,7.63
2023-05-02T05:25:09.442Z,7.63
2023-05-02T05:25:45.040Z,7.69
2023-05-02T05:26:20.976Z,7.69
2023-05-02T05:26:54.600Z,7.69
2023-05-02T05:27:27.290Z,7.69
2023-05-02T05:28:01.639Z,7.69
2023-05-02T05:28:35.463Z,7.69
2023-05-02T05:29:09.007Z,7.69
2023-05-02T05:29:45.831Z,7.69
2023-05-02T05:30:25.116Z,7.69
2023-05-02T05:31:04.701Z,7.69
2023-05-02T05:31:37.423Z,7.69
2023-05-02T05:32:11.621Z,7.69
2023-05-02T05:32:46.085Z,7.69
2023-05-02T05:33:25.620Z,7.69
2023-05-02T05:33:58.406Z,7.75
2023-05-02T05:34:32.792Z,7.75
2023-05-02T05:35:07.208Z,7.75
2023-05-02T05:35:40.674Z,7.75
2023-05-02T05:36:15.522Z,7.75
2023-05-02T05:36:48.151Z,7.75
2023-05-02T05:37:20.935Z,7.81
2023-05-02T05:37:54.587Z,7.81
2023-05-02T05:38:27.065Z,7.81
2023-05-02T05:38:59.735Z,7.81
2023-05-02T05:39:33.306Z,7.81
2023-05-02T05:40:08.147Z,7.81
2023-05-02T05:40:41.302Z,7.81
2023-05-02T05:41:15.940Z,7.88
2023-05-02T05:41:52.795Z,7.88
2023-05-02T05:42:27.145Z,7.88
2023-05-02T05:43:03.399Z,7.94
2023-05-02T05:43:39.916Z,7.94
2023-05-02T05:44:14.270Z,7.94
2023-05-02T05:44:46.772Z,7.94
2023-05-02T05:45:22.682Z,8.00
2023-05-02T05:45:55.763Z,8.00
2023-05-02T05:46:28.379Z,8.00
2023-05-02T05:47:02.336Z,8.00
2023-05-02T05:47:35.097Z,8.00
2023-05-02T05:48:10.207Z,8.00
2023-05-02T05:48:49.460Z,8.06
2023-05-02T05:49:24.383Z,8.06
2023-05-02T05:49:57.591Z,8.06
2023-05-02T05:50:34.277Z,8.13
2023-05-02T05:51:08.415Z,8.13
2023-05-02T05:51:41.289Z,8.13
2023-05-02T05:52:13.963Z,8.13
2023-05-02T05:52:48.460Z,8.13
2023-05-02T05:53:21.557Z,8.13
2023-05-02T05:53:56.316Z,8.13
2023-05-02T05:54:28.814Z,8.13
2023-05-02T05:55:01.713Z,8.13
2023-05-02T05:55:37.490Z,8.13
2023-05-02T05:56:11.179Z,8.13
2023-05-02T05:56:46.012Z,8.13
2023-05-02T05:57:23.791Z,8.19
2023-05-02T05:57:56.528Z,8.19
2023-05-02T05:58:29.256Z,8.19
2023-05-02T05:59:03.353Z,8.19
2023-05-02T05:59:36.162Z,8.25
2023-05-02T06:00:10.739Z,8.25
2023-05-02T06:00:52.351Z,8.31
2023-05-02T06:01:24.940Z,8.38
2023-05-02T06:01:59.496Z,8.38
2023-05-02T06:02:32.151Z,8.38
2023-05-02T06:03:07.304Z,8.44
2023-05-02T06:03:43.822Z,8.44
2023-05-02T06:04:16.833Z,8.44
2023-05-02T06:04:53.010Z,8.50
2023-05-02T06:05:29.465Z,8.50
2023-05-02T06:06:02.129Z,8.50
2023-05-02T06:06:36.058Z,8.50
2023-05-02T06:07:08.902Z,8.50
2023-05-02T06:07:41.368Z,8.50
2023-05-02T06:08:14.901Z,8.50
2023-05-02T06:08:47.367Z,8.56
2023-05-02T06:09:21.203Z,8.56
2023-05-02T06:09:53.726Z,8.56
2023-05-02T06:10:26.463Z,8.56
2023-05-02T06:11:00.358Z,8.56
2023-05-02T06:11:32.826Z,8.56
2023-05-02T06:12:06.552Z,8.56
2023-05-02T06:12:40.036Z,8.56
2023-05-02T06:13:13.567Z,8.56
2023-05-02T06:13:49.065Z,8.56
2023-05-02T06:14:21.966Z,8.56
2023-05-02T06:14:56.471Z,8.63
2023-05-02T06:15:29.187Z,8.63
2023-05-02T06:16:03.478Z,8.63
2023-05-02T06:16:36.507Z,8.69
2023-05-02T06:17:10.623Z,8.75
2023-05-02T06:17:43.278Z,8.75
2023-05-02T06:18:16.275Z,8.75
2023-05-02T06:18:52.714Z,8.75
2023-05-02T06:19:25.388Z,8.75
2023-05-02T06:19:59.216Z,8.75
2023-05-02T06:20:32.720Z,8.75
2023-05-02T06:21:05.729Z,8.75
2023-05-02T06:21:39.336Z,8.81
2023-05-02T06:22:13.114Z,8.81
2023-05-02T06:22:45.945Z,8.81
2023-05-02T06:23:24.280Z,8.88
2023-05-02T06:23:56.787Z,8.88
2023-05-02T06:24:32.173Z,8.88
2023-05-02T06:25:07.241Z,8.88
2023-05-02T06:25:39.750Z,8.94
2023-05-02T06:26:13.239Z,8.88
2023-05-02T06:26:46.254Z,8.88
2023-05-02T06:27:18.743Z,8.88
2023-05-02T06:27:52.207Z,8.88
2023-05-02T06:28:24.747Z,8.88
2023-05-02T06:28:58.248Z,8.88
2023-05-02T06:29:30.718Z,8.88
2023-05-02T06:30:04.029Z,8.88
2023-05-02T06:30:37.762Z,8.88
2023-05-02T06:31:10.253Z,8.88
2023-05-02T06:31:43.762Z,8.88
2023-05-02T06:32:16.249Z,8.88
2023-05-02T06:32:48.779Z,8.88
2023-05-02T06:33:22.276Z,8.94
2023-05-02T06:33:56.094Z,8.94
2023-05-02T06:34:28.658Z,8.94
2023-05-02T06:35:02.238Z,8.94
2023-05-02T06:35:34.853Z,9.00
2023-05-02T06:36:07.717Z,9.00
2023-05-02T06:36:41.209Z,9.00
2023-05-02T06:37:13.714Z,9.06
2023-05-02T06:37:46.208Z,9.06
2023-05-02T06:38:19.774Z,9.13
2023-05-02T06:38:52.277Z,9.13
2023-05-02T06:39:25.788Z,9.19
2023-05-02T06:39:58.521Z,9.19
2023-05-02T06:40:31.353Z,9.19
2023-05-02T06:41:05.030Z,9.19
2023-05-02T06:41:37.592Z,9.25
2023-05-02T06:42:11.436Z,9.25
2023-05-02T06:42:43.861Z,9.31
2023-05-02T06:43:16.542Z,9.38
2023-05-02T06:43:50.002Z,9.44
2023-05-02T06:44:22.430Z,9.50
2023-05-02T06:44:54.995Z,9.56
2023-05-02T06:45:28.460Z,9.56
2023-05-02T06:46:01.701Z,9.63
2023-05-02T06:46:35.642Z,9.56
2023-05-02T06:47:08.210Z,9.56
2023-05-02T06:47:40.822Z,9.56
2023-05-02T06:48:14.430Z,9.50
2023-05-02T06:48:46.942Z,9.50
2023-05-02T06:49:21.719Z,9.44
2023-05-02T06:49:54.222Z,9.44
2023-05-02T06:50:27.695Z,9.38
2023-05-02T06:51:00.141Z,9.38
2023-05-02T06:51:32.579Z,9.38
2023-05-02T06:52:06.118Z,9.31
2023-05-02T06:52:38.591Z,9.31
2023-05-02T06:53:12.033Z,9.31
2023-05-02T06:53:44.469Z,9.25
2023-05-02T06:54:17.147Z,9.25
2023-05-02T06:54:50.782Z,9.19
2023-05-02T06:55:23.488Z,9.13
2023-05-02T06:55:56.012Z,9.13
2023-05-02T06:56:29.548Z,9.13
2023-05-02T06:57:02.688Z,9.06
2023-05-02T06:57:36.180Z,9.06
2023-05-02T06:58:08.702Z,9.06
2023-05-02T06:58:42.231Z,9.06
2023-05-02T06:59:16.707Z,9.13
2023-05-02T06:59:49.251Z,9.13
2023-05-02T07:00:23.190Z,9.19
2023-05-02T07:00:55.739Z,9.25
2023-05-02T07:01:28.288Z,9.25
2023-05-02T07:02:04.344Z,9.31
2023-05-02T07:02:37.845Z,9.44
2023-05-02T07:03:11.221Z,9.50
2023-05-02T07:03:44.906Z,9.63
2023-05-02T07:04:17.424Z,9.75
2023-05-02T07:04:51.275Z,9.88
2023-05-02T07:05:24.819Z,9.94
2023-05-02T07:05:58.098Z,10.06
2023-05-02T07:06:31.077Z,10.13
2023-05-02T07:07:04.965Z,10.13
2023-05-02T07:07:37.533Z,10.13
2023-05-02T07:08:11.598Z,10.13
2023-05-02T07:08:44.133Z,10.13
2023-05-02T07:09:17.798Z,10.19
2023-05-02T07:09:50.353Z,10.13
2023-05-02T07:10:22.822Z,10.13
2023-05-02T07:10:56.272Z,10.13
2023-05-02T07:11:28.700Z,10.13
2023-05-02T07:12:04.568Z,10.13
2023-05-02T07:12:40.126Z,10.13
2023-05-02T07:13:12.594Z,10.25
2023-05-02T07:13:46.427Z,10.31
2023-05-02T07:14:18.874Z,10.44
2023-05-02T07:14:52.296Z,10.50
2023-05-02T07:15:24.768Z,10.56
2023-05-02T07:15:57.624Z,10.69
2023-05-02T07:16:31.456Z,10.75
2023-05-02T07:17:04.024Z,10.88
2023-05-02T07:17:37.578Z,10.94
2023-05-02T07:18:10.208Z,11.13
2023-05-02T07:18:45.692Z,11.19
2023-05-02T07:19:18.478Z,11.19
2023-05-02T07:19:53.286Z,11.19
2023-05-02T07:20:26.142Z,11.13
2023-05-02T07:21:01.645Z,11.13
2023-05-02T07:21:34.095Z,11.19
2023-05-02T07:22:07.929Z,11.25
2023-05-02T07:22:40.518Z,11.25
2023-05-02T07:23:13.088Z,11.13
2023-05-02T07:23:46.572Z,11.00
2023-05-02T07:24:19.048Z,10.94
2023-05-02T07:25:02.154Z,10.88
2023-05-02T07:25:34.626Z,10.88
2023-05-02T07:26:08.192Z,10.88
2023-05-02T07:26:41.025Z,10.88
2023-05-02T07:27:14.234Z,10.88
2023-05-02T07:27:47.746Z,10.88
2023-05-02T07:28:20.236Z,10.88
2023-05-02T07:28:53.668Z,10.81
2023-05-02T07:29:26.190Z,10.75
2023-05-02T07:29:59.863Z,10.69
2023-05-02T07:30:32.480Z,10.69
2023-05-02T07:31:05.352Z,10.69
2023-05-02T07:31:39.531Z,10.69
2023-05-02T07:32:12.176Z,10.75
2023-05-02T07:32:45.255Z,10.75
2023-05-02T07:33:18.806Z,10.75
2023-05-02T07:33:51.425Z,10.81
2023-05-02T07:34:25.065Z,10.88
2023-05-02T07:34:58.889Z,10.94
2023-05-02T07:35:32.314Z,11.00
2023-05-02T07:36:05.182Z,11.00
2023-05-02T07:36:37.657Z,11.00
2023-05-02T07:37:11.783Z,10.94
2023-05-02T07:37:44.238Z,10.94
2023-05-02T07:38:17.667Z,10.88
2023-05-02T07:38:50.248Z,10.81
2023-05-02T07:39:23.179Z,10.75
2023-05-02T07:39:56.614Z,10.69
2023-05-02T07:40:29.413Z,10.69
2023-05-02T07:41:02.909Z,10.69
2023-05-02T07:41:35.516Z,10.69
2023-05-02T07:42:09.006Z,10.75
2023-05-02T07:42:41.823Z,10.81
2023-05-02T07:43:16.059Z,10.81
2023-05-02T07:43:48.585Z,10.81
2023-05-02T07:44:21.190Z,10.81
2023-05-02T07:44:54.595Z,10.81
2023-05-02T07:45:27.039Z,10.81
2023-05-02T07:46:04.718Z,10.75